Time;durP1;ratioP1;P1;durP2;ratioP2;P2;SDS_P1;SDS_P2;PMS_P1;PMS_P2;Temp;Humidity;BMP_temperature;BMP_pressure;BME280_temperature;BME280_humidity;BME280_pressure;Samples;Min_cycle;Max_cycle;Signal;HPM_P1;HPM_P2
2022/07/08 00:01:27;;;;;;;14.23;3.28;;;;;;;12.90;96.32;102275.25;4990335;28;20620;-43
2022/07/08 00:03:53;;;;;;;12.98;3.67;;;;;;;12.82;96.77;102285.34;4990224;28;20165;-42
2022/07/08 00:06:18;;;;;;;17.42;3.45;;;;;;;12.77;97.14;102290.84;4990161;28;20182;-45
2022/07/08 00:08:44;;;;;;;15.85;3.72;;;;;;;12.76;97.61;102287.25;4990314;28;20216;-46
2022/07/08 00:11:10;;;;;;;16.15;3.65;;;;;;;12.67;97.48;102284.78;4989809;28;20173;-43
2022/07/08 00:13:36;;;;;;;12.82;3.42;;;;;;;12.74;97.92;102281.00;4989843;28;20208;-44
2022/07/08 00:16:02;;;;;;;18.45;4.05;;;;;;;12.64;97.60;102279.50;4989950;28;20177;-43
2022/07/08 00:18:27;;;;;;;15.02;3.30;;;;;;;12.74;97.71;102281.00;4989973;28;20640;-44
2022/07/08 00:20:52;;;;;;;11.65;3.40;;;;;;;12.67;98.27;102279.41;4989928;28;20256;-45
2022/07/08 00:23:18;;;;;;;21.35;3.42;;;;;;;12.68;98.49;102289.25;4992955;28;20165;-45
2022/07/08 00:25:43;;;;;;;15.40;3.72;;;;;;;12.77;98.64;102285.47;4993064;28;20253;-41
2022/07/08 00:28:09;;;;;;;20.35;3.85;;;;;;;12.68;98.69;102288.34;4993232;28;20209;-44
2022/07/08 00:30:34;;;;;;;11.70;3.15;;;;;;;12.69;98.58;102282.94;4993695;28;20249;-43
2022/07/08 00:33:00;;;;;;;18.42;4.05;;;;;;;12.56;98.90;102276.09;4992929;28;20177;-42
2022/07/08 00:35:26;;;;;;;15.65;3.22;;;;;;;12.58;99.04;102267.06;4975969;28;20193;-48
2022/07/08 00:37:53;;;;;;;19.15;4.22;;;;;;;12.63;99.54;102277.69;4992658;28;20283;-49
2022/07/08 00:40:19;;;;;;;17.85;3.75;;;;;;;12.56;99.60;102268.91;4993014;28;20669;-48
2022/07/08 00:42:48;;;;;;;15.55;3.17;;;;;;;12.65;99.72;102277.66;4992363;28;20177;-48
2022/07/08 00:45:13;;;;;;;17.88;4.00;;;;;;;12.56;99.52;102276.09;4992761;28;20218;-50
2022/07/08 00:47:39;;;;;;;19.30;3.28;;;;;;;12.53;99.98;102278.84;4992806;28;20313;-50
2022/07/08 00:50:05;;;;;;;15.10;3.13;;;;;;;12.50;100.00;102276.22;4993094;28;20185;-47
2022/07/08 00:52:31;;;;;;;19.13;3.38;;;;;;;12.44;100.00;102279.97;4992319;28;20359;-47
2022/07/08 00:54:57;;;;;;;18.73;3.58;;;;;;;12.39;100.00;102283.66;4991904;28;20209;-47
2022/07/08 00:57:24;;;;;;;12.63;3.13;;;;;;;12.45;100.00;102283.53;4992714;28;20288;-47
2022/07/08 00:59:49;;;;;;;19.60;3.50;;;;;;;12.49;100.00;102299.53;5007399;28;20576;-47
2022/07/08 01:02:15;;;;;;;11.50;3.60;;;;;;;12.44;100.00;102292.47;4988402;28;20251;-47
2022/07/08 01:04:41;;;;;;;15.75;3.08;;;;;;;12.45;100.00;102291.59;4991823;28;20170;-48
2022/07/08 01:07:06;;;;;;;15.60;3.35;;;;;;;12.36;100.00;102300.75;4992375;28;20177;-48
2022/07/08 01:09:32;;;;;;;21.33;3.55;;;;;;;12.35;100.00;102302.53;4992083;28;20565;-47
2022/07/08 01:11:59;;;;;;;11.25;3.08;;;;;;;12.44;100.00;102292.47;4992499;28;20197;-47
2022/07/08 01:14:25;;;;;;;17.65;3.15;;;;;;;12.34;100.00;102305.25;4991596;28;20197;-48
2022/07/08 01:16:50;;;;;;;14.43;2.78;;;;;;;12.39;99.96;102295.28;4992531;28;20680;-48
2022/07/08 01:19:16;;;;;;;14.25;2.97;;;;;;;12.40;100.00;102309.59;4991870;28;20185;-47
2022/07/08 01:21:41;;;;;;;11.75;2.70;;;;;;;12.38;99.69;102309.66;4992527;28;20181;-49
2022/07/08 01:24:06;;;;;;;19.13;3.50;;;;;;;12.32;100.00;102297.22;4991427;28;20173;-49
2022/07/08 01:26:32;;;;;;;14.00;3.63;;;;;;;12.28;100.00;102300.00;4992409;28;20276;-49
2022/07/08 01:28:58;;;;;;;16.60;3.53;;;;;;;12.26;100.00;102305.41;4992022;28;20579;-47
2022/07/08 01:31:23;;;;;;;17.23;3.80;;;;;;;12.22;100.00;102300.13;4992113;28;20541;-47
2022/07/08 01:33:49;;;;;;;14.68;3.03;;;;;;;12.13;100.00;102301.22;4973421;28;20198;-48
2022/07/08 01:36:14;;;;;;;12.00;2.90;;;;;;;12.06;100.00;102302.28;4991389;28;20520;-48
2022/07/08 01:38:40;;;;;;;13.57;2.92;;;;;;;11.98;100.00;102298.84;4991816;28;20284;-47
2022/07/08 01:41:05;;;;;;;19.45;3.50;;;;;;;12.01;100.00;102283.56;4992081;28;20177;-49
2022/07/08 01:43:31;;;;;;;14.45;3.13;;;;;;;11.87;100.00;102291.88;4991395;28;20732;-48
2022/07/08 01:45:56;;;;;;;14.35;3.13;;;;;;;11.95;100.00;102298.00;4991715;28;20744;-47
2022/07/08 01:48:22;;;;;;;14.68;2.83;;;;;;;11.97;100.00;102308.72;4986062;28;20200;-47
2022/07/08 01:50:47;;;;;;;9.02;2.70;;;;;;;11.93;100.00;102307.88;4989734;28;20185;-48
2022/07/08 01:53:13;;;;;;;10.35;2.67;;;;;;;11.92;100.00;102306.13;4991062;28;20196;-47
2022/07/08 01:55:39;;;;;;;10.38;2.72;;;;;;;11.82;100.00;102298.25;4991723;28;20166;-49
2022/07/08 01:58:04;;;;;;;17.10;3.00;;;;;;;11.90;100.00;102307.97;4991449;28;20202;-48
2022/07/08 02:00:30;;;;;;;13.38;2.80;;;;;;;11.91;100.00;102301.66;4991638;28;20664;-48
2022/07/08 02:02:55;;;;;;;11.82;3.05;;;;;;;11.72;100.00;102308.31;4991012;28;20189;-47
2022/07/08 02:05:21;;;;;;;13.48;2.90;;;;;;;11.81;100.00;102307.22;4973899;28;20200;-48
2022/07/08 02:07:47;;;;;;;16.13;3.00;;;;;;;11.82;100.00;102309.88;4991190;28;20264;-49
2022/07/08 02:10:12;;;;;;;13.77;2.50;;;;;;;11.78;100.00;102309.97;4991448;28;20264;-48
2022/07/08 02:12:38;;;;;;;12.75;2.60;;;;;;;11.67;100.00;102313.72;4991013;28;20181;-47
2022/07/08 02:15:06;;;;;;;13.13;3.17;;;;;;;11.66;100.00;102313.78;4990866;28;20693;-48
2022/07/08 02:17:37;;;;;;;15.60;3.45;;;;;;;11.65;100.00;102320.91;4990094;28;20681;-48
2022/07/08 02:20:08;;;;;;;15.10;3.08;;;;;;;11.60;100.00;102325.50;4991491;28;20234;-48
2022/07/08 02:22:33;;;;;;;15.00;2.78;;;;;;;11.62;100.00;102336.22;4990671;28;20276;-47
2022/07/08 02:24:59;;;;;;;13.73;3.17;;;;;;;11.69;100.00;102324.44;4990758;28;20317;-49
2022/07/08 02:27:24;;;;;;;15.48;3.08;;;;;;;11.59;100.00;102338.94;4990503;28;20240;-47
2022/07/08 02:29:50;;;;;;;8.65;2.45;;;;;;;11.75;100.00;102343.13;4990884;28;20606;-48
2022/07/08 02:32:16;;;;;;;20.52;3.92;;;;;;;11.69;100.00;102332.50;4990483;28;20574;-49
2022/07/08 02:34:42;;;;;;;15.75;2.65;;;;;;;11.65;100.00;102338.84;4990001;28;20248;-47
2022/07/08 02:37:09;;;;;;;12.27;2.63;;;;;;;11.60;100.00;102335.38;4972981;28;20177;-48
2022/07/08 02:39:34;;;;;;;11.25;2.63;;;;;;;11.54;100.00;102337.25;4972858;28;20185;-49
2022/07/08 02:42:00;;;;;;;11.90;3.13;;;;;;;11.49;100.00;102344.50;4990718;28;20279;-47
2022/07/08 02:44:26;;;;;;;14.95;2.88;;;;;;;11.58;100.00;102345.25;4989850;28;20186;-48
2022/07/08 02:46:51;;;;;;;15.30;3.60;;;;;;;11.65;100.00;102337.03;4990315;28;20174;-48
2022/07/08 02:49:17;;;;;;;15.48;2.85;;;;;;;11.52;100.00;102344.44;4972913;28;20208;-48
2022/07/08 02:51:42;;;;;;;12.75;2.80;;;;;;;11.51;100.00;102348.03;4990606;28;20196;-48
2022/07/08 02:54:08;;;;;;;11.07;3.20;;;;;;;11.44;100.00;102343.69;4989604;28;20656;-49
2022/07/08 02:56:34;;;;;;;16.65;3.25;;;;;;;11.48;100.00;102348.09;4990202;28;20173;-48
2022/07/08 02:59:01;;;;;;;13.40;3.30;;;;;;;11.43;100.00;102349.97;4990322;28;20216;-48
2022/07/08 03:01:26;;;;;;;10.52;3.00;;;;;;;11.45;100.00;102349.94;4989881;28;20279;-47
2022/07/08 03:03:52;;;;;;;14.52;3.17;;;;;;;11.50;100.00;102356.09;4990057;28;20276;-49
2022/07/08 03:06:18;;;;;;;12.68;2.85;;;;;;;11.45;100.00;102364.25;4990063;28;20582;-48
2022/07/08 03:08:44;;;;;;;13.90;3.08;;;;;;;11.51;100.00;102360.56;4990032;28;20212;-49
2022/07/08 03:11:10;;;;;;;12.60;3.38;;;;;;;11.57;100.00;102355.09;4990235;28;20169;-50
2022/07/08 03:13:36;;;;;;;14.43;3.00;;;;;;;11.62;100.00;102358.59;4989712;28;20589;-47
2022/07/08 03:16:03;;;;;;;19.20;3.20;;;;;;;11.60;100.00;102356.84;4990271;28;20173;-48
2022/07/08 03:18:28;;;;;;;13.18;2.55;;;;;;;11.69;100.00;102349.50;4990235;28;20208;-47
2022/07/08 03:20:54;;;;;;;12.82;2.78;;;;;;;11.72;100.00;102349.44;4989780;28;20627;-48
2022/07/08 03:23:19;;;;;;;13.80;2.75;;;;;;;11.61;100.00;102337.13;5004669;28;20165;-48
2022/07/08 03:25:45;;;;;;;13.88;2.78;;;;;;;11.62;100.00;102345.16;4989891;28;20201;-50
2022/07/08 03:28:10;;;;;;;12.65;2.97;;;;;;;11.66;100.00;102338.81;5005150;28;20208;-47
2022/07/08 03:30:36;;;;;;;14.93;2.80;;;;;;;11.67;100.00;102334.31;4990411;28;20170;-48
2022/07/08 03:33:01;;;;;;;15.55;3.13;;;;;;;11.72;100.00;102353.94;4989779;28;20165;-48
2022/07/08 03:35:27;;;;;;;16.05;3.08;;;;;;;11.74;100.00;102354.78;4990202;28;20676;-49
2022/07/08 03:37:52;;;;;;;13.23;2.60;;;;;;;11.67;100.00;102355.81;4990119;28;20248;-48
2022/07/08 03:43:02;;;;;;;13.50;2.40;;;;;;;11.73;100.00;102355.69;4971674;28;20170;-49
2022/07/08 03:45:27;;;;;;;20.63;3.22;;;;;;;11.76;100.00;102374.44;4990512;28;20169;-48
2022/07/08 03:47:53;;;;;;;13.68;2.80;;;;;;;11.68;100.00;102379.94;4990254;28;20217;-48
2022/07/08 03:50:19;;;;;;;15.57;2.80;;;;;;;11.60;100.00;102378.31;4978606;28;20600;-49
2022/07/08 03:52:48;;;;;;;16.77;2.90;;;;;;;11.66;100.00;102373.72;4987877;28;20244;-47
2022/07/08 03:55:14;;;;;;;12.82;2.95;;;;;;;11.79;100.00;102376.19;4989766;28;20194;-48
2022/07/08 03:57:39;;;;;;;11.90;3.10;;;;;;;11.67;100.00;102385.34;4992409;28;20288;-49
2022/07/08 04:00:07;;;;;;;16.17;2.75;;;;;;;11.72;100.00;102379.00;4970292;28;20182;-48
2022/07/08 04:02:33;;;;;;;12.10;2.50;;;;;;;11.82;100.00;102378.81;4994008;28;20248;-50
2022/07/08 04:04:59;;;;;;;12.00;2.53;;;;;;;11.74;100.00;102370.88;4993071;28;20173;-48
2022/07/08 04:07:24;;;;;;;9.27;2.60;;;;;;;11.84;100.00;102376.97;4993647;28;20315;-48
2022/07/08 04:09:50;;;;;;;15.48;2.97;;;;;;;11.83;100.00;102377.88;4993662;28;20181;-49
2022/07/08 04:12:16;;;;;;;22.98;3.22;;;;;;;11.83;100.00;102386.84;4993544;28;20178;-50
2022/07/08 04:14:42;;;;;;;13.63;2.95;;;;;;;11.88;100.00;102385.00;4975572;28;20220;-49
2022/07/08 04:17:07;;;;;;;12.15;2.80;;;;;;;11.99;100.00;102376.72;4993605;28;20260;-49
2022/07/08 04:19:33;;;;;;;10.38;2.83;;;;;;;11.88;100.00;102376.94;4992954;28;20220;-48
2022/07/08 04:21:58;;;;;;;14.23;2.40;;;;;;;12.03;100.00;102380.25;4993695;28;20249;-49
2022/07/08 04:24:24;;;;;;;11.05;2.78;;;;;;;12.07;100.00;102381.94;4992887;28;20188;-49
2022/07/08 04:26:49;;;;;;;11.30;2.35;;;;;;;11.99;100.00;102394.66;4992992;28;20269;-46
2022/07/08 04:29:14;;;;;;;19.45;2.72;;;;;;;11.95;100.00;102392.00;4993409;28;20201;-49
2022/07/08 04:31:40;;;;;;;12.77;2.78;;;;;;;12.01;100.00;102387.44;4993219;28;20220;-48
2022/07/08 04:34:06;;;;;;;15.00;2.72;;;;;;;11.97;100.00;102394.66;4993023;28;20325;-51
2022/07/08 04:36:31;;;;;;;17.55;2.97;;;;;;;12.02;100.00;102403.53;4993172;28;20209;-48
2022/07/08 04:38:57;;;;;;;12.25;2.78;;;;;;;12.14;100.00;102394.34;4993021;28;20572;-48
2022/07/08 04:41:22;;;;;;;14.15;2.63;;;;;;;12.13;100.00;102404.22;4992964;28;20184;-49
2022/07/08 04:43:48;;;;;;;12.02;2.55;;;;;;;12.15;100.00;102401.47;4992790;28;20166;-48
2022/07/08 04:46:13;;;;;;;12.82;2.88;;;;;;;12.31;100.00;102396.69;4992930;28;20166;-50
2022/07/08 04:48:39;;;;;;;11.82;2.92;;;;;;;12.33;100.00;102402.91;4992948;28;20272;-49
2022/07/08 04:51:05;;;;;;;9.55;2.72;;;;;;;12.44;100.00;102392.84;4993183;28;20173;-49
2022/07/08 04:53:31;;;;;;;17.63;3.30;;;;;;;12.56;100.00;102397.94;4992559;28;20256;-49
2022/07/08 04:55:56;;;;;;;15.65;2.47;;;;;;;12.54;99.91;102393.53;4992994;28;20647;-49
2022/07/08 04:58:22;;;;;;;17.50;3.15;;;;;;;12.60;99.67;102388.03;4992736;28;20335;-49
2022/07/08 05:00:48;;;;;;;16.30;2.92;;;;;;;12.65;99.26;102396.88;4993233;28;20162;-49
2022/07/08 05:03:13;;;;;;;10.93;2.40;;;;;;;12.80;99.08;102392.09;4992111;28;20186;-50
2022/07/08 05:05:39;;;;;;;12.48;3.03;;;;;;;12.88;98.36;102400.84;4993082;28;20174;-49
2022/07/08 05:08:04;;;;;;;13.10;2.45;;;;;;;13.00;97.81;102395.19;4992447;28;20197;-49
2022/07/08 05:10:30;;;;;;;9.60;2.50;;;;;;;13.13;97.20;102401.16;4992435;28;20185;-49
2022/07/08 05:12:57;;;;;;;14.30;2.42;;;;;;;13.14;96.82;102408.31;4974785;28;20233;-49
2022/07/08 05:15:23;;;;;;;13.77;2.63;;;;;;;13.29;96.91;102417.88;4992504;28;20220;-49
2022/07/08 05:17:48;;;;;;;21.88;3.00;;;;;;;13.36;95.85;102425.78;4992154;28;20194;-48
2022/07/08 05:20:14;;;;;;;14.57;2.35;;;;;;;13.46;95.91;102412.06;4992622;28;20181;-49
2022/07/08 05:22:40;;;;;;;10.85;2.53;;;;;;;13.57;95.10;102418.94;4975014;28;20197;-48
2022/07/08 05:25:07;;;;;;;13.65;2.85;;;;;;;13.72;94.56;102417.69;4991491;28;20191;-48
2022/07/08 05:27:33;;;;;;;10.43;2.65;;;;;;;13.85;93.96;102420.94;4991842;28;20731;-48
2022/07/08 05:29:59;;;;;;;13.63;2.63;;;;;;;13.90;93.18;102419.00;4992331;28;20174;-48
2022/07/08 05:32:24;;;;;;;12.48;2.50;;;;;;;13.98;92.60;102419.69;4992104;28;20177;-49
2022/07/08 05:34:50;;;;;;;11.40;2.55;;;;;;;13.98;92.55;102422.38;4991625;28;20193;-49
2022/07/08 05:37:15;;;;;;;9.00;2.60;;;;;;;13.89;92.55;102429.84;4992251;28;20225;-49
2022/07/08 05:39:42;;;;;;;11.85;2.95;;;;;;;13.81;92.45;102433.59;4991743;28;20249;-49
2022/07/08 05:42:09;;;;;;;10.27;2.95;;;;;;;13.68;93.17;102437.53;4992232;28;20189;-49
2022/07/08 05:44:36;;;;;;;15.15;3.08;;;;;;;13.71;92.89;102424.00;4991561;28;20237;-49
2022/07/08 05:47:03;;;;;;;12.75;2.85;;;;;;;13.77;92.72;102415.78;4991929;28;20195;-46
2022/07/08 05:49:28;;;;;;;14.27;2.97;;;;;;;13.88;92.18;102428.94;4992231;28;20187;-49
2022/07/08 05:51:54;;;;;;;13.25;2.70;;;;;;;13.86;92.29;102425.38;4991871;28;20181;-44
2022/07/08 05:54:20;;;;;;;13.25;2.13;;;;;;;13.93;92.73;102431.53;4991810;28;20190;-47
2022/07/08 05:56:46;;;;;;;12.38;2.90;;;;;;;13.98;92.88;102414.28;4991900;28;20188;-46
2022/07/08 05:59:11;;;;;;;18.50;2.95;;;;;;;13.95;92.61;102418.88;4992150;28;20201;-44
2022/07/08 06:01:37;;;;;;;21.70;2.58;;;;;;;14.11;92.63;102428.31;4991999;28;20328;-48
2022/07/08 06:04:02;;;;;;;14.00;2.42;;;;;;;13.91;92.83;102422.59;4991609;28;20220;-46
2022/07/08 06:06:28;;;;;;;16.48;2.42;;;;;;;13.90;92.85;102432.47;4991544;28;20245;-45
2022/07/08 06:08:53;;;;;;;12.68;2.33;;;;;;;13.85;93.20;102436.22;4991819;28;20248;-46
2022/07/08 06:11:19;;;;;;;11.23;2.67;;;;;;;13.85;93.31;102434.41;4991221;28;20264;-50
2022/07/08 06:13:44;;;;;;;21.45;2.90;;;;;;;13.89;93.32;102438.81;4991456;28;20204;-45
2022/07/08 06:16:10;;;;;;;11.40;2.65;;;;;;;13.88;93.66;102445.09;4974393;28;20189;-47
2022/07/08 06:18:35;;;;;;;14.00;2.67;;;;;;;13.94;94.11;102441.38;4991314;28;20190;-46
2022/07/08 06:21:01;;;;;;;10.98;2.50;;;;;;;13.84;94.41;102454.22;4991512;28;20663;-44
2022/07/08 06:23:27;;;;;;;13.10;2.88;;;;;;;13.80;94.73;102439.94;4991059;28;20170;-46
2022/07/08 06:25:52;;;;;;;15.57;2.97;;;;;;;13.83;95.20;102451.53;4991828;28;20209;-46
2022/07/08 06:28:18;;;;;;;16.60;3.10;;;;;;;13.79;95.51;102453.44;4991184;28;20731;-48
2022/07/08 06:30:43;;;;;;;16.50;3.00;;;;;;;13.77;95.67;102445.41;4991302;28;20176;-44
2022/07/08 06:33:09;;;;;;;11.77;2.58;;;;;;;13.83;96.13;102443.47;4991082;28;20174;-45
2022/07/08 06:35:35;;;;;;;13.35;2.80;;;;;;;13.92;96.09;102440.53;4991325;28;20687;-49
2022/07/08 06:38:01;;;;;;;14.02;2.60;;;;;;;13.97;96.26;102444.88;4990603;28;20208;-50
2022/07/08 06:40:27;;;;;;;11.95;2.60;;;;;;;14.00;96.36;102447.47;4991038;28;20200;-48
2022/07/08 06:42:53;;;;;;;17.52;3.60;;;;;;;13.85;96.48;102450.56;4991169;28;20188;-47
2022/07/08 06:45:18;;;;;;;20.65;3.63;;;;;;;13.88;97.20;102446.91;4990516;28;20668;-49
2022/07/08 06:47:44;;;;;;;19.52;3.53;;;;;;;13.79;97.62;102457.00;4990983;28;20280;-47
2022/07/08 06:50:10;;;;;;;14.18;3.00;;;;;;;13.77;98.15;102455.28;4990686;28;20515;-50
2022/07/08 06:52:36;;;;;;;14.75;2.80;;;;;;;13.82;98.25;102461.44;4990583;28;20165;-48
2022/07/08 06:55:03;;;;;;;14.20;2.80;;;;;;;13.94;97.98;102453.03;4972423;28;20680;-47
2022/07/08 06:57:28;;;;;;;15.45;3.70;;;;;;;13.90;98.00;102455.84;4973204;28;20193;-49
2022/07/08 06:59:54;;;;;;;16.05;3.15;;;;;;;13.84;98.20;102466.78;4990481;28;20177;-49
2022/07/08 07:02:20;;;;;;;18.25;3.17;;;;;;;13.93;98.54;102459.34;4990934;28;20181;-46
2022/07/08 07:04:45;;;;;;;15.73;2.65;;;;;;;13.91;98.80;102458.50;4990501;28;20240;-50
2022/07/08 07:07:11;;;;;;;13.27;3.10;;;;;;;13.95;99.37;102467.38;5005219;28;20207;-48
2022/07/08 07:09:38;;;;;;;18.25;2.92;;;;;;;13.98;99.68;102467.31;4990684;28;20173;-48
2022/07/08 07:12:07;;;;;;;15.48;3.22;;;;;;;13.92;100.00;102468.34;5005344;28;20189;-48
2022/07/08 07:14:34;;;;;;;14.52;3.03;;;;;;;13.92;100.00;102478.25;4990034;28;20212;-49
2022/07/08 07:17:00;;;;;;;13.38;3.00;;;;;;;14.04;100.00;102471.63;4990264;28;20170;-48
2022/07/08 07:19:26;;;;;;;17.77;3.33;;;;;;;13.98;100.00;102478.97;4990920;28;20550;-47
2022/07/08 07:21:52;;;;;;;17.85;4.13;;;;;;;13.99;100.00;102485.25;4990261;28;20300;-48
2022/07/08 07:24:18;;;;;;;11.57;3.33;;;;;;;14.08;100.00;102476.03;4990071;28;20264;-49
2022/07/08 07:26:43;;;;;;;16.13;3.22;;;;;;;14.06;100.00;102481.47;4973057;28;20169;-49
2022/07/08 07:29:09;;;;;;;12.80;3.15;;;;;;;14.00;100.00;102474.44;4990176;28;20281;-50
2022/07/08 07:31:35;;;;;;;13.75;2.80;;;;;;;14.09;100.00;102481.38;4991324;28;20157;-49
2022/07/08 07:34:01;;;;;;;14.55;3.30;;;;;;;14.19;100.00;102485.63;4993663;28;20241;-48
2022/07/08 07:36:27;;;;;;;12.93;2.80;;;;;;;14.28;100.00;102491.66;4993978;28;20220;-50
2022/07/08 07:38:52;;;;;;;10.75;2.90;;;;;;;14.30;100.00;102479.94;4994292;28;20201;-48
2022/07/08 07:41:17;;;;;;;14.10;2.70;;;;;;;14.45;100.00;102478.59;4994442;28;20165;-48
2022/07/08 07:43:43;;;;;;;15.70;3.17;;;;;;;14.40;100.00;102478.72;4993543;28;20222;-48
2022/07/08 07:46:08;;;;;;;9.98;2.80;;;;;;;14.58;100.00;102472.00;4994215;28;20190;-49
2022/07/08 07:48:34;;;;;;;14.43;2.78;;;;;;;14.75;100.00;102471.47;4993831;28;20284;-48
2022/07/08 07:51:00;;;;;;;14.13;3.65;;;;;;;14.73;100.00;102467.94;4976620;28;20189;-48
2022/07/08 07:53:26;;;;;;;16.88;2.97;;;;;;;14.76;100.00;102469.69;4993568;28;20562;-49
2022/07/08 07:55:52;;;;;;;8.98;3.08;;;;;;;14.59;100.00;102470.16;4993543;28;20681;-49
2022/07/08 07:58:17;;;;;;;9.07;2.50;;;;;;;14.65;100.00;102469.09;4993690;28;20196;-47
2022/07/08 08:00:43;;;;;;;9.75;2.40;;;;;;;14.60;100.00;102472.81;4993925;28;20664;-49
2022/07/08 08:03:09;;;;;;;10.80;2.53;;;;;;;14.56;100.00;102489.13;4993282;28;20188;-50
2022/07/08 08:05:35;;;;;;;10.43;2.70;;;;;;;14.48;100.00;102494.72;4993507;28;20550;-48
2022/07/08 08:08:00;;;;;;;12.90;3.50;;;;;;;14.47;100.00;102492.94;4993640;28;20205;-47
2022/07/08 08:10:26;;;;;;;9.68;2.92;;;;;;;14.53;100.00;102486.50;4993932;28;20174;-48
2022/07/08 08:12:51;;;;;;;6.50;2.40;;;;;;;14.54;100.00;102502.63;4993653;28;20197;-47
2022/07/08 08:15:17;;;;;;;7.57;2.30;;;;;;;14.57;100.00;102490.91;4993267;28;20190;-47
2022/07/08 08:17:43;;;;;;;7.40;2.20;;;;;;;14.55;100.00;102500.84;4993442;28;20202;-50
2022/07/08 08:20:11;;;;;;;7.32;2.78;;;;;;;14.58;100.00;102504.38;4993725;28;20170;-47
2022/07/08 08:22:37;;;;;;;9.65;3.40;;;;;;;14.66;100.00;102493.34;4993364;28;20220;-49
2022/07/08 08:25:03;;;;;;;5.78;3.80;;;;;;;14.72;100.00;102497.69;5007026;28;20185;-48
2022/07/08 08:27:29;;;;;;;6.28;3.00;;;;;;;14.81;100.00;102486.63;4992785;28;20200;-49
2022/07/08 08:29:55;;;;;;;6.22;2.42;;;;;;;14.95;100.00;102488.91;4992377;28;20261;-49
2022/07/08 08:32:21;;;;;;;7.65;2.45;;;;;;;14.88;100.00;102490.03;4992427;28;20269;-47
2022/07/08 08:34:47;;;;;;;5.93;1.92;;;;;;;15.01;100.00;102489.59;4991404;28;20280;-48
2022/07/08 08:37:13;;;;;;;8.32;1.77;;;;;;;15.11;100.00;102482.13;4992139;28;20174;-50
2022/07/08 08:39:39;;;;;;;5.47;1.52;;;;;;;14.91;100.00;102488.13;4991949;28;20268;-47
2022/07/08 08:42:06;;;;;;;3.05;1.25;;;;;;;14.94;100.00;102481.75;4991820;28;20598;-46
2022/07/08 08:44:32;;;;;;;3.90;1.40;;;;;;;15.06;100.00;102481.34;4991176;28;20353;-49
2022/07/08 08:46:58;;;;;;;4.85;1.20;;;;;;;15.01;100.00;102480.63;4992108;28;20166;-48
2022/07/08 08:49:24;;;;;;;3.08;1.27;;;;;;;15.12;100.00;102488.41;5006407;28;20181;-48
2022/07/08 08:51:50;;;;;;;5.05;1.60;;;;;;;15.06;100.00;102484.06;4974644;28;20195;-50
2022/07/08 08:54:20;;;;;;;2.50;1.48;;;;;;;15.21;100.00;102486.28;4991647;28;20201;-49
2022/07/08 08:56:46;;;;;;;4.72;1.55;;;;;;;15.19;100.00;102479.16;4992050;28;20189;-48
2022/07/08 08:59:14;;;;;;;3.38;1.40;;;;;;;15.15;100.00;102486.50;4991477;28;20572;-48
2022/07/08 09:01:40;;;;;;;2.30;1.42;;;;;;;15.01;100.00;102478.78;4991407;28;20712;-49
2022/07/08 09:04:11;;;;;;;2.05;1.40;;;;;;;15.08;100.00;102481.31;4991334;28;20273;-50
2022/07/08 09:06:40;;;;;;;4.18;1.38;;;;;;;15.13;100.00;102487.44;4991557;28;20248;-49
2022/07/08 09:09:07;;;;;;;3.28;1.40;;;;;;;15.05;100.00;102485.00;4991725;28;20209;-49
2022/07/08 09:11:33;;;;;;;2.33;1.27;;;;;;;15.16;100.00;102481.97;4991674;28;20177;-48
2022/07/08 09:14:20;;;;;;;1.25;1.00;;;;;;;15.39;100.00;102492.94;4991054;28;20205;-47
2022/07/08 09:17:17;;;;;;;2.08;1.20;;;;;;;15.60;100.00;102487.75;4991306;28;20186;-50
2022/07/08 09:19:49;;;;;;;3.42;1.23;;;;;;;15.70;100.00;102482.94;4991504;28;20261;-49
2022/07/08 09:22:15;;;;;;;2.70;1.35;;;;;;;15.85;100.00;102467.13;4991276;28;20204;-49
2022/07/08 09:24:40;;;;;;;3.30;1.50;;;;;;;16.06;100.00;102467.31;4947743;28;1256553;-47
2022/07/08 09:27:10;;;;;;;2.05;1.00;;;;;;;15.91;100.00;102465.16;4991726;28;20184;-48
2022/07/08 09:29:41;;;;;;;2.05;1.02;;;;;;;16.05;100.00;102460.16;4992289;28;20173;-47
2022/07/08 09:32:10;;;;;;;3.10;1.00;;;;;;;16.00;100.00;102471.09;4973747;28;20535;-48
2022/07/08 09:34:36;;;;;;;0.98;0.90;;;;;;;16.05;100.00;102474.56;4991163;28;20299;-46
2022/07/08 09:37:13;;;;;;;4.95;1.27;;;;;;;16.13;100.00;102471.56;4991670;28;20189;-50
2022/07/08 09:39:38;;;;;;;2.78;1.13;;;;;;;16.16;100.00;102473.28;4991837;28;20227;-49
2022/07/08 09:42:08;;;;;;;2.47;1.27;;;;;;;16.10;100.00;102465.41;4974502;28;20170;-47
2022/07/08 09:44:37;;;;;;;3.30;1.10;;;;;;;16.46;100.00;102457.75;4991438;28;20213;-49
2022/07/08 09:47:10;;;;;;;4.25;1.50;;;;;;;16.43;100.00;102455.19;4974152;28;20193;-47
2022/07/08 09:49:42;;;;;;;7.53;1.13;;;;;;;16.46;99.16;102455.97;4991358;28;20181;-47
2022/07/08 09:52:09;;;;;;;2.72;0.88;;;;;;;16.51;98.67;102449.47;4991831;28;20299;-48
2022/07/08 09:54:35;;;;;;;1.92;1.05;;;;;;;16.47;98.76;102465.84;4990247;28;20213;-49
2022/07/08 09:57:06;;;;;;;2.75;1.20;;;;;;;16.36;98.74;102461.75;4991594;28;20176;-47
2022/07/08 09:59:34;;;;;;;2.95;1.27;;;;;;;16.59;98.23;102463.59;4991671;28;20162;-48
2022/07/08 10:01:59;;;;;;;3.15;1.20;;;;;;;16.68;97.96;102461.44;4991401;28;20599;-48
2022/07/08 10:04:26;;;;;;;4.20;1.13;;;;;;;16.79;96.82;102462.84;4991132;28;20204;-48
2022/07/08 10:06:53;;;;;;;3.55;1.20;;;;;;;17.11;96.69;102469.75;4991492;28;20197;-48
2022/07/08 10:09:21;;;;;;;4.22;1.20;;;;;;;17.45;94.88;102469.28;4991707;28;20189;-48
2022/07/08 10:11:48;;;;;;;2.90;1.08;;;;;;;17.60;93.54;102462.38;5006245;28;20177;-47
2022/07/08 10:14:13;;;;;;;3.58;1.10;;;;;;;17.36;92.40;102460.63;4990953;28;20236;-48
2022/07/08 10:16:40;;;;;;;3.20;0.95;;;;;;;17.26;93.09;102455.59;4991062;28;20256;-48
2022/07/08 10:19:21;;;;;;;1.75;0.98;;;;;;;17.82;90.51;102447.91;4991350;28;20208;-48
2022/07/08 10:21:51;;;;;;;3.13;0.80;;;;;;;18.16;87.08;102439.19;4973439;28;20185;-46
2022/07/08 10:24:22;;;;;;;1.92;0.70;;;;;;;18.60;85.24;102422.72;4990506;28;20183;-47
2022/07/08 10:26:48;;;;;;;3.42;0.85;;;;;;;19.28;82.37;102423.09;4973417;28;20170;-48
2022/07/08 10:29:14;;;;;;;2.53;0.82;;;;;;;19.20;80.15;102424.44;4990677;28;20193;-49
2022/07/08 10:31:42;;;;;;;2.42;0.82;;;;;;;19.02;79.49;102427.13;4991376;28;20237;-48
2022/07/08 10:34:08;;;;;;;1.52;0.50;;;;;;;18.98;79.17;102436.38;4990639;28;20213;-49
2022/07/08 10:36:49;;;;;;;2.13;0.50;;;;;;;18.49;79.92;102438.63;4991123;28;20173;-49
2022/07/08 10:39:26;;;;;;;1.70;0.65;;;;;;;19.02;79.37;102437.97;4990687;28;20207;-47
2022/07/08 10:41:56;;;;;;;2.38;0.60;;;;;;;19.45;76.68;102443.13;4990736;28;20183;-48
2022/07/08 10:44:43;;;;;;;1.65;0.32;;;;;;;18.74;77.85;102432.94;4990184;28;20178;-47
2022/07/08 10:47:14;;;;;;;0.93;0.40;;;;;;;18.49;76.76;102439.50;4990825;28;20189;-48
2022/07/08 10:49:45;;;;;;;1.92;0.63;;;;;;;18.78;76.01;102439.13;4990964;28;20173;-49
2022/07/08 10:52:11;;;;;;;0.70;0.40;;;;;;;19.17;73.63;102433.63;4990526;28;20270;-47
2022/07/08 10:54:37;;;;;;;0.65;0.38;;;;;;;19.63;72.71;102433.16;4989816;28;20197;-47
2022/07/08 10:57:15;;;;;;;4.75;0.65;;;;;;;19.93;71.04;102428.03;4990726;28;20185;-47
2022/07/08 10:59:44;;;;;;;2.30;0.40;;;;;;;20.21;69.48;102432.88;4990438;28;20184;-47
2022/07/08 11:02:13;;;;;;;0.90;0.40;;;;;;;19.97;68.08;102435.06;4990645;28;20536;-47
2022/07/08 11:04:40;;;;;;;1.05;0.35;;;;;;;19.33;71.17;102428.31;4989708;28;20260;-48
2022/07/08 11:07:17;;;;;;;0.75;0.40;;;;;;;19.24;71.63;102437.81;4990501;28;20226;-47
2022/07/08 11:09:49;;;;;;;2.17;0.50;;;;;;;19.68;70.70;102433.84;4990527;28;20185;-48
2022/07/08 11:12:21;;;;;;;1.45;0.43;;;;;;;19.38;71.05;102425.38;4990628;28;20527;-48
2022/07/08 11:14:49;;;;;;;2.70;0.70;;;;;;;19.80;70.66;102425.06;4989968;28;20205;-46